LPLACYYT

Guest
Details From LPLA - LAJES
To CYYT - ST JOHNS INTL
Flight Number -
Tags decoded
Created
Modified
Stats Distance 1,247 nm / 2,310 km
Max Altitude 0 ft / 0 m
Waypoints 6
Social Downloads 0
Likes 0
Share VATSIM

Download

Looking for another format? Having issues loading an existing format? Contact us
Advertisement - Login to hide

Notes

Requested: LPLA LUKAL 44N040W RONPO YYT CYYT

Route

LPLA LUKAL 44N040W RONPO YYT CYYT

ID Type Via Altitude Latitude Longitude Leg Dist Tot Dist Heading (true) Name
O LPLA APT - 0 ft / 0 m 38.76441˚ -27.09348˚ - 0 nm - LAJES
LUKAL FIX - 0 ft / 0 m 41.25306˚ -32.35583˚ 284 nm 284 nm 303° / 300° -
44N040W LATLON - 0 ft / 0 m 44.00000˚ -40.00000˚ 375 nm 660 nm 299° / 293° -
RONPO FIX - 0 ft / 0 m 46.87722˚ -51.00000˚ 494 nm 1154 nm 294° / 286° -
YYT VOR - 0 ft / 0 m 47.48550˚ -52.85236˚ 83 nm 1238 nm 296° / 295° TORBAY VOR-DME
O CYYT APT - 0 ft / 0 m 47.62013˚ -52.74683˚ 9 nm 1247 nm 28° / 28° ST JOHNS INTL

Altitude Profile

Advertisement - Login to hide

Weather


0- 5 10 15 20 25 30 35+ Temperature / ° C

Clouds and Precipitation
Forecast for 2017-12-14 06:00 UTC. Updated an hour ago

Ground ~20,000 ft ~40,000 ft Winds

LPLA

Details ICAO LPLA (TER)
Name LAJES
Region Portugal
Timezone Atlantic/Azores (UTC-1.0)
Stats Elevation 180 ft / 55 m (AMSL)
Location 38.764410° -27.093482°
Runways 1
Magnetic Variation 8.935° W

METAR

LPLA 140600Z /////KT 9999 FEW012 BKN022 17/15 Q1031

Decode

TAF

TAF LPLA 140500Z 1406/1506 25008KT 9999 FEW015 BKN025= TAF LPPD 140500Z 1406/1506 24008KT 9999 SCT008 BKN015 TEMPO 1406/1415 5000 BR SCT004 BKN008 BECMG 1408/1411 27010KT SCT012

Decode

Departure Runways

ID Width Length Bearing (true) Bearing (mag) Surface Threshold Offset Overrun Length
15 197 ft / 60 m 10,869 ft / 3,313 m 140.81° 149.74° Asphalt 0 ft / 0 m 991 ft / 302 m
33 197 ft / 60 m 10,869 ft / 3,313 m 320.82° 329.75° Asphalt 0 ft / 0 m 1,040 ft / 317 m

CYYT

Details ICAO CYYT (YYT)
Name ST JOHNS INTL
Region Canada
Timezone America/St_Johns (UTC-3.5)
Stats Elevation 461 ft / 141 m (AMSL)
Location 47.620132° -52.746829°
Runways 3
Magnetic Variation 18.115° W

METAR

CYYT 140624Z 22022G36KT 15SM BKN090 11/10 A2909 RMK AC6 SLP854 DENSITY ALT 1100FT

Decode

TAF

TAF CYYT 140541Z 1406/1506 20020G30KT 2SM -DZ BR OVC005 TEMPO 1406/1408 P6SM NSW SCT005 OVC025 FM140800 22024G45KT P6SM BKN030 TEMPO 1408/1415 BKN020 FM141500 22024G45KT P6SM BKN030 TEMPO 1415/1418 3SM -SHSN OVC030 FM142100 21020G40KT P6SM BKN030 FM150200 16030G45KT 2SM -RA BR OVC008 RMK NXT FCST BY 141200Z

Decode

Destination Runways

ID Width Length Bearing (true) Bearing (mag) Surface Threshold Offset Overrun Length
02 98 ft / 30 m 4,863 ft / 1,482 m 356.21° 14.33° Asphalt 0 ft / 0 m 0 ft / 0 m
11 200 ft / 61 m 8,510 ft / 2,594 m 85.88° 104.00° Asphalt 0 ft / 0 m 0 ft / 0 m
16 200 ft / 61 m 7,010 ft / 2,137 m 139.21° 157.33° Asphalt 0 ft / 0 m 0 ft / 0 m
20 98 ft / 30 m 4,863 ft / 1,482 m 176.20° 194.32° Asphalt 0 ft / 0 m 0 ft / 0 m
29 200 ft / 61 m 8,510 ft / 2,594 m 265.91° 284.03° Asphalt 0 ft / 0 m 0 ft / 0 m
34 200 ft / 61 m 7,010 ft / 2,137 m 319.23° 337.35° Asphalt 0 ft / 0 m 0 ft / 0 m

Approach Navaids

Runway Type Ident Frequency Range Bearing (true) Bearing (mag) Slope Elevation
11 Localiser IMP 109.10 MHz 18 nm / 33 km 85.90° 104.01° - 461 ft / 141 m (AMSL)
11 Glidescope IMP 109.10 MHz 10 nm / 19 km 110.00° 128.12° 3.00° 461 ft / 141 m (AMSL)
16 Localiser IYT 110.70 MHz 18 nm / 33 km 139.19° 157.30° - 461 ft / 141 m (AMSL)
16 Glidescope IYT 110.70 MHz 10 nm / 19 km 160.00° 178.12° 3.00° 461 ft / 141 m (AMSL)
29 Localiser UYT 110.30 MHz 18 nm / 33 km 265.89° 284.01° - 461 ft / 141 m (AMSL)
29 Glidescope UYT 110.30 MHz 10 nm / 19 km 290.00° 308.12° 3.00° 461 ft / 141 m (AMSL)

Popular Alternatives